Time;durP1;ratioP1;P1;durP2;ratioP2;P2;SDS_P1;SDS_P2;PMS_P1;PMS_P2;Temp;Humidity;BMP_temperature;BMP_pressure;BME280_temperature;BME280_humidity;BME280_pressure;Samples;Min_cycle;Max_cycle;Signal;HPM_P1;HPM_P2
2021/04/04 00:00:36;;;;;;;9.98;2.20;;;;;;;;;;5008494;28;20037;-73
2021/04/04 00:03:02;;;;;;;13.77;3.58;;;;;;;;;;5005009;28;20027;-73
2021/04/04 00:05:27;;;;;;;11.43;3.10;;;;;;;;;;5000328;28;20113;-73
2021/04/04 00:07:53;;;;;;;18.90;3.08;;;;;;;;;;5004779;28;20446;-73
2021/04/04 00:10:19;;;;;;;14.68;2.88;;;;;;;;;;5008470;28;20026;-73
2021/04/04 00:12:46;;;;;;;11.13;2.15;;;;;;;;;;5004675;28;20731;-72
2021/04/04 00:15:14;;;;;;;20.38;3.00;;;;;;;;;;5004681;28;20088;-72
2021/04/04 00:17:40;;;;;;;14.50;2.70;;;;;;;;;;5015399;28;20037;-78
2021/04/04 00:20:14;;;;;;;16.27;3.00;;;;;;;;;;5031315;28;20018;-73
2021/04/04 00:22:40;;;;;;;17.33;3.08;;;;;;;;;;5028226;28;20022;-73
2021/04/04 00:25:07;;;;;;;18.70;2.50;;;;;;;;;;5010930;28;20040;-73
2021/04/04 00:27:33;;;;;;;15.30;3.33;;;;;;;;;;5002134;28;20033;-72
2021/04/04 00:29:59;;;;;;;16.92;3.28;;;;;;;;;;5008365;28;20031;-73
2021/04/04 00:32:25;;;;;;;14.27;2.95;;;;;;;;;;5002951;28;20505;-72
2021/04/04 00:34:51;;;;;;;21.27;3.58;;;;;;;;;;5008239;28;20022;-72
2021/04/04 00:37:17;;;;;;;13.00;2.40;;;;;;;;;;5003462;28;20022;-73
2021/04/04 00:39:43;;;;;;;15.88;3.08;;;;;;;;;;5007278;28;20041;-73
2021/04/04 00:42:09;;;;;;;10.90;2.13;;;;;;;;;;5004744;28;20030;-73
2021/04/04 00:44:35;;;;;;;28.98;3.53;;;;;;;;;;5003739;28;20052;-72
2021/04/04 00:47:01;;;;;;;10.55;2.30;;;;;;;;;;5012023;28;20057;-73
2021/04/04 00:49:27;;;;;;;17.05;3.17;;;;;;;;;;5010166;28;20037;-73
2021/04/04 00:51:53;;;;;;;10.82;2.30;;;;;;;;;;5012144;28;20034;-73
2021/04/04 00:54:19;;;;;;;10.80;2.60;;;;;;;;;;5009902;28;20463;-73
2021/04/04 00:56:45;;;;;;;16.67;2.58;;;;;;;;;;5010261;28;20036;-73
2021/04/04 00:59:11;;;;;;;9.93;2.10;;;;;;;;;;5009692;28;20084;-73
2021/04/04 01:01:37;;;;;;;11.32;2.45;;;;;;;;;;5007340;28;20027;-73
2021/04/04 01:04:03;;;;;;;26.05;4.20;;;;;;;;;;5012504;28;20128;-73
2021/04/04 01:06:29;;;;;;;17.27;2.83;;;;;;;;;;5016592;28;20080;-74
2021/04/04 01:08:55;;;;;;;14.60;3.05;;;;;;;;;;5031094;28;20030;-73
2021/04/04 01:11:36;;;;;;;13.55;2.53;;;;;;;;;;5020221;28;20055;-73
2021/04/04 01:14:05;;;;;;;14.98;2.53;;;;;;;;;;5000628;28;20029;-73
2021/04/04 01:16:34;;;;;;;18.80;2.83;;;;;;;;;;5007687;28;20034;-73
2021/04/04 01:19:11;;;;;;;10.32;2.95;;;;;;;;;;5004633;28;20831;-73
2021/04/04 01:22:06;;;;;;;12.32;2.70;;;;;;;;;;5008812;28;20661;-73
2021/04/04 01:24:38;;;;;;;17.10;2.35;;;;;;;;;;4968403;28;20123;-73
2021/04/04 01:27:23;;;;;;;11.07;2.60;;;;;;;;;;5009200;28;20038;-73
2021/04/04 01:29:49;;;;;;;13.75;2.22;;;;;;;;;;5007807;28;20483;-73
2021/04/04 01:32:15;;;;;;;11.13;2.17;;;;;;;;;;5010042;28;20072;-73
2021/04/04 01:34:42;;;;;;;14.75;3.20;;;;;;;;;;5005303;28;20026;-73
2021/04/04 01:37:11;;;;;;;18.63;3.25;;;;;;;;;;5010690;28;20390;-73
2021/04/04 01:39:40;;;;;;;13.82;2.53;;;;;;;;;;5006717;28;20037;-73
2021/04/04 01:42:09;;;;;;;19.53;3.20;;;;;;;;;;5009800;28;20034;-72
2021/04/04 01:44:36;;;;;;;12.85;3.38;;;;;;;;;;5007379;28;20022;-73
2021/04/04 01:47:02;;;;;;;15.52;3.10;;;;;;;;;;5007471;28;20029;-73
2021/04/04 01:49:30;;;;;;;14.20;2.85;;;;;;;;;;5010993;28;20033;-72
2021/04/04 01:51:57;;;;;;;21.50;4.03;;;;;;;;;;5008071;28;20030;-73
2021/04/04 01:54:23;;;;;;;12.60;2.78;;;;;;;;;;5003447;28;20034;-73
2021/04/04 01:56:49;;;;;;;10.27;2.08;;;;;;;;;;5002650;28;20526;-72
2021/04/04 01:59:16;;;;;;;9.75;2.10;;;;;;;;;;5003861;28;20030;-73
2021/04/04 02:01:46;;;;;;;11.82;2.72;;;;;;;;;;5010134;28;20014;-73
2021/04/04 02:04:13;;;;;;;13.00;2.88;;;;;;;;;;5004130;28;20172;-72
2021/04/04 02:06:40;;;;;;;13.63;2.75;;;;;;;;;;5008824;28;20129;-73
2021/04/04 02:09:09;;;;;;;12.50;2.38;;;;;;;;;;5009285;28;20030;-73
2021/04/04 02:11:35;;;;;;;12.02;2.95;;;;;;;;;;5000176;28;20037;-73
2021/04/04 02:14:12;;;;;;;9.48;2.33;;;;;;;;;;5008311;28;20483;-73
2021/04/04 02:16:38;;;;;;;11.68;2.78;;;;;;;;;;5008833;28;20030;-73
2021/04/04 02:19:05;;;;;;;11.73;2.72;;;;;;;;;;4996569;28;20034;-73
2021/04/04 02:21:31;;;;;;;12.88;2.58;;;;;;;;;;5008034;28;20022;-73
2021/04/04 02:24:00;;;;;;;5.60;2.35;;;;;;;;;;5003929;28;20392;-73
2021/04/04 02:26:28;;;;;;;9.38;2.00;;;;;;;;;;5009538;28;20034;-73
2021/04/04 02:28:54;;;;;;;25.27;2.80;;;;;;;;;;5003253;28;20034;-73
2021/04/04 02:31:20;;;;;;;13.55;3.08;;;;;;;;;;5000758;28;20053;-73
2021/04/04 02:33:50;;;;;;;12.13;3.00;;;;;;;;;;5005520;28;20026;-73
2021/04/04 02:36:16;;;;;;;;;;;;;;;;;;5002211;28;20029;-73
2021/04/04 02:38:44;;;;;;;15.13;4.40;;;;;;;;;;5008612;28;19916;-73
2021/04/04 02:41:10;;;;;;;15.10;4.43;;;;;;;;;;5003645;28;20022;-73
2021/04/04 02:43:37;;;;;;;13.00;3.97;;;;;;;;;;5008887;28;20544;-73
2021/04/04 02:46:08;;;;;;;14.50;4.22;;;;;;;;;;5004839;28;20479;-73
2021/04/04 02:48:36;;;;;;;17.27;4.47;;;;;;;;;;5002470;28;20034;-73
2021/04/04 02:51:03;;;;;;;19.88;5.45;;;;;;;;;;5005139;28;20026;-72
2021/04/04 02:53:30;;;;;;;19.38;5.45;;;;;;;;;;5003556;28;20793;-73
2021/04/04 02:55:57;;;;;;;17.48;5.40;;;;;;;;;;5006910;28;20029;-73
2021/04/04 02:58:23;;;;;;;15.45;5.72;;;;;;;;;;5002243;28;20026;-73
2021/04/04 03:00:49;;;;;;;17.20;6.00;;;;;;;;;;4999330;28;20068;-73
2021/04/04 03:03:17;;;;;;;17.17;5.22;;;;;;;;;;5004129;28;20061;-72
2021/04/04 03:05:44;;;;;;;17.50;5.28;;;;;;;;;;5002451;28;20029;-74
2021/04/04 03:08:10;;;;;;;13.50;4.40;;;;;;;;;;5006521;28;20080;-74
2021/04/04 03:10:36;;;;;;;18.60;5.00;;;;;;;;;;4998136;28;20039;-73
2021/04/04 03:13:03;;;;;;;17.73;4.60;;;;;;;;;;5005718;28;20483;-73
2021/04/04 03:15:30;;;;;;;12.70;3.40;;;;;;;;;;5003836;28;20483;-73
2021/04/04 03:17:58;;;;;;;14.88;4.38;;;;;;;;;;5006507;28;20034;-73
2021/04/04 03:20:25;;;;;;;13.18;3.08;;;;;;;;;;5007424;28;20029;-73
2021/04/04 03:22:52;;;;;;;12.00;3.08;;;;;;;;;;5000610;28;20060;-73
2021/04/04 03:25:18;;;;;;;17.33;4.10;;;;;;;;;;5000863;28;20030;-73
2021/04/04 03:27:45;;;;;;;16.42;3.65;;;;;;;;;;5008674;28;20049;-73
2021/04/04 03:30:35;;;;;;;15.80;2.58;;;;;;;;;;4998372;28;20025;-73
2021/04/04 03:32:58;;;;;;;13.10;3.22;;;;;;;;;;5008971;28;20041;-73
2021/04/04 03:35:24;;;;;;;16.38;2.67;;;;;;;;;;5007305;28;20083;-73
2021/04/04 03:37:52;;;;;;;16.38;3.17;;;;;;;;;;5003660;28;20036;-73
2021/04/04 03:40:18;;;;;;;16.85;3.67;;;;;;;;;;5008141;28;20022;-73
2021/04/04 03:42:44;;;;;;;11.27;2.78;;;;;;;;;;5006485;28;20894;-73
2021/04/04 03:45:10;;;;;;;10.95;2.88;;;;;;;;;;5004842;28;20108;-73
2021/04/04 03:47:37;;;;;;;12.82;3.30;;;;;;;;;;5002884;28;20030;-73
2021/04/04 03:50:04;;;;;;;14.90;2.58;;;;;;;;;;5007779;28;20026;-73
2021/04/04 03:52:30;;;;;;;12.15;2.92;;;;;;;;;;5000691;28;20025;-73
2021/04/04 03:54:57;;;;;;;10.98;3.00;;;;;;;;;;5005167;28;20033;-73
2021/04/04 03:57:24;;;;;;;12.98;3.42;;;;;;;;;;5008172;28;20083;-73
2021/04/04 03:59:52;;;;;;;20.98;3.65;;;;;;;;;;5003995;28;20034;-73
2021/04/04 04:02:20;;;;;;;9.80;2.42;;;;;;;;;;5008059;28;20026;-74
2021/04/04 04:04:46;;;;;;;15.75;3.55;;;;;;;;;;5006974;28;20025;-74
2021/04/04 04:07:12;;;;;;;16.40;3.28;;;;;;;;;;5001307;28;21277;-74
2021/04/04 04:09:38;;;;;;;14.05;2.92;;;;;;;;;;5004157;28;20025;-74
2021/04/04 04:12:05;;;;;;;14.85;4.82;;;;;;;;;;5021127;28;20057;-73
2021/04/04 04:14:31;;;;;;;15.30;4.40;;;;;;;;;;5022169;28;20030;-74
2021/04/04 04:16:57;;;;;;;15.43;4.25;;;;;;;;;;5000295;28;20056;-73
2021/04/04 04:19:23;;;;;;;8.77;3.22;;;;;;;;;;5004486;28;20360;-73
2021/04/04 04:21:49;;;;;;;12.88;3.72;;;;;;;;;;4997815;28;20782;-73
2021/04/04 04:24:16;;;;;;;17.25;4.25;;;;;;;;;;5004602;28;20076;-73
2021/04/04 04:26:43;;;;;;;12.80;4.57;;;;;;;;;;4995290;28;20049;-73
2021/04/04 04:29:10;;;;;;;13.07;4.55;;;;;;;;;;5000146;28;20045;-73
2021/04/04 04:31:37;;;;;;;16.45;5.72;;;;;;;;;;5003918;28;20022;-73
2021/04/04 04:34:05;;;;;;;16.55;5.70;;;;;;;;;;5019802;28;20443;-73
2021/04/04 04:36:31;;;;;;;15.65;6.10;;;;;;;;;;5006900;28;20479;-74
2021/04/04 04:38:58;;;;;;;16.08;6.80;;;;;;;;;;4999006;28;20026;-73
2021/04/04 04:41:24;;;;;;;14.45;6.70;;;;;;;;;;5001290;28;20076;-73
2021/04/04 04:43:54;;;;;;;34.17;10.25;;;;;;;;;;5000833;28;20097;-73
2021/04/04 04:46:20;;;;;;;12.18;7.40;;;;;;;;;;5006672;28;20129;-73
2021/04/04 04:48:46;;;;;;;18.95;8.20;;;;;;;;;;5007220;28;20062;-73
2021/04/04 04:51:12;;;;;;;14.98;5.97;;;;;;;;;;5001230;28;20100;-73
2021/04/04 04:53:39;;;;;;;12.57;5.45;;;;;;;;;;5004709;28;20026;-73
2021/04/04 04:56:05;;;;;;;15.30;4.93;;;;;;;;;;4995250;28;20085;-73
2021/04/04 04:58:31;;;;;;;16.13;4.97;;;;;;;;;;5007532;28;20087;-73
2021/04/04 05:00:59;;;;;;;15.32;5.03;;;;;;;;;;4998610;28;20035;-73
2021/04/04 05:03:25;;;;;;;11.25;4.93;;;;;;;;;;5000394;28;20041;-74
2021/04/04 05:05:51;;;;;;;12.60;4.78;;;;;;;;;;5001374;28;20019;-73
2021/04/04 05:08:18;;;;;;;14.77;4.75;;;;;;;;;;4998802;28;20038;-73
2021/04/04 05:10:45;;;;;;;13.13;4.35;;;;;;;;;;5001183;28;20117;-73
2021/04/04 05:13:11;;;;;;;14.43;3.53;;;;;;;;;;5005484;28;20037;-73
2021/04/04 05:15:39;;;;;;;12.82;4.00;;;;;;;;;;5003897;28;20048;-73
2021/04/04 05:18:06;;;;;;;21.40;4.05;;;;;;;;;;5006078;28;20065;-73
2021/04/04 05:20:32;;;;;;;12.63;2.78;;;;;;;;;;5004415;28;20022;-73
2021/04/04 05:22:58;;;;;;;11.52;2.90;;;;;;;;;;5005387;28;20025;-74
2021/04/04 05:25:24;;;;;;;5.85;2.20;;;;;;;;;;5006648;28;20801;-73
2021/04/04 05:27:50;;;;;;;13.75;2.65;;;;;;;;;;5005333;28;20502;-73
2021/04/04 05:30:16;;;;;;;7.55;2.05;;;;;;;;;;5023348;28;20018;-74
2021/04/04 05:32:50;;;;;;;6.93;2.13;;;;;;;;;;5026731;28;20053;-73
2021/04/04 05:35:20;;;;;;;11.65;2.80;;;;;;;;;;5016212;28;20080;-73
2021/04/04 05:37:47;;;;;;;8.57;2.78;;;;;;;;;;5011089;28;20080;-73
2021/04/04 05:40:31;;;;;;;8.77;2.95;;;;;;;;;;5004700;28;20521;-73
2021/04/04 05:42:59;;;;;;;7.68;2.17;;;;;;;;;;5010608;28;20032;-74
2021/04/04 05:45:44;;;;;;;9.68;2.45;;;;;;;;;;5010604;28;20018;-73
2021/04/04 05:48:16;;;;;;;3.88;1.33;;;;;;;;;;5009833;28;20030;-73
2021/04/04 05:50:45;;;;;;;4.80;1.30;;;;;;;;;;5009278;28;20088;-73
2021/04/04 05:53:30;;;;;;;9.55;1.50;;;;;;;;;;5008041;28;20096;-73
2021/04/04 05:56:03;;;;;;;5.75;1.33;;;;;;;;;;5001655;28;20509;-73
2021/04/04 05:58:31;;;;;;;9.02;1.63;;;;;;;;;;5010773;28;20045;-73
2021/04/04 06:01:00;;;;;;;9.55;1.85;;;;;;;;;;5007753;28;20036;-73
2021/04/04 06:03:29;;;;;;;8.70;1.75;;;;;;;;;;5003029;28;20030;-73
2021/04/04 06:06:14;;;;;;;7.80;1.65;;;;;;;;;;5005696;28;20026;-73
2021/04/04 06:08:58;;;;;;;8.13;1.92;;;;;;;;;;5005875;28;20065;-73
2021/04/04 06:11:41;;;;;;;4.93;1.20;;;;;;;;;;5000179;28;20033;-73
2021/04/04 06:14:13;;;;;;;3.47;1.08;;;;;;;;;;5006678;28;20034;-73
2021/04/04 06:16:48;;;;;;;4.43;1.67;;;;;;;;;;5003198;28;20524;-73
2021/04/04 06:19:15;;;;;;;5.88;1.30;;;;;;;;;;5005371;28;20060;-73
2021/04/04 06:21:45;;;;;;;7.03;1.75;;;;;;;;;;5004268;28;20077;-73
2021/04/04 06:24:11;;;;;;;3.88;1.60;;;;;;;;;;5003749;28;20499;-73
2021/04/04 06:26:37;;;;;;;9.65;1.48;;;;;;;;;;5000116;28;20180;-73
2021/04/04 06:29:25;;;;;;;4.20;1.33;;;;;;;;;;5002772;28;20161;-73
2021/04/04 06:32:07;;;;;;;6.88;2.08;;;;;;;;;;5007991;28;20049;-73
2021/04/04 06:34:36;;;;;;;8.77;2.05;;;;;;;;;;5005758;28;20491;-73
2021/04/04 06:37:21;;;;;;;10.32;2.65;;;;;;;;;;5005467;28;20041;-73
2021/04/04 06:39:57;;;;;;;8.10;2.45;;;;;;;;;;4999586;28;20073;-73
2021/04/04 06:42:47;;;;;;;9.65;2.78;;;;;;;;;;5001780;28;20109;-73
2021/04/04 06:45:19;;;;;;;10.27;3.53;;;;;;;;;;4989490;28;20076;-73
2021/04/04 06:48:01;;;;;;;11.00;3.75;;;;;;;;;;4995758;28;20029;-73
2021/04/04 06:50:31;;;;;;;8.10;2.95;;;;;;;;;;5008298;28;20026;-73
2021/04/04 06:53:17;;;;;;;12.82;3.75;;;;;;;;;;5004210;28;20029;-73
2021/04/04 06:55:48;;;;;;;9.82;3.65;;;;;;;;;;5001427;28;20023;-73
2021/04/04 06:58:33;;;;;;;13.32;3.15;;;;;;;;;;5008981;28;20041;-73
2021/04/04 07:01:02;;;;;;;12.43;3.63;;;;;;;;;;5004318;28;20034;-73
2021/04/04 07:03:29;;;;;;;16.58;4.25;;;;;;;;;;5002209;28;20499;-73
2021/04/04 07:06:14;;;;;;;10.60;3.95;;;;;;;;;;4999580;28;20025;-73
2021/04/04 07:08:40;;;;;;;11.07;3.53;;;;;;;;;;4996454;28;20160;-74
2021/04/04 07:11:06;;;;;;;11.00;3.80;;;;;;;;;;5000235;28;20514;-74
2021/04/04 07:13:50;;;;;;;11.77;4.10;;;;;;;;;;5002712;28;20416;-75
2021/04/04 07:16:55;;;;;;;13.43;3.72;;;;;;;;;;5003510;28;20053;-74
2021/04/04 07:19:40;;;;;;;10.65;3.15;;;;;;;;;;4959710;28;20031;-74
2021/04/04 07:22:24;;;;;;;9.80;3.45;;;;;;;;;;4965018;28;20038;-73
2021/04/04 07:25:09;;;;;;;11.27;3.08;;;;;;;;;;4986766;28;20494;-73
2021/04/04 07:28:02;;;;;;;13.35;4.13;;;;;;;;;;4999050;28;20037;-74
2021/04/04 07:30:35;;;;;;;12.20;3.92;;;;;;;;;;4993493;28;20030;-74
2021/04/04 07:33:09;;;;;;;12.98;4.10;;;;;;;;;;5000545;28;20026;-74
2021/04/04 07:36:02;;;;;;;12.75;4.32;;;;;;;;;;5000744;28;20034;-74
2021/04/04 07:38:47;;;;;;;10.98;4.05;;;;;;;;;;4995912;28;20045;-74
2021/04/04 07:41:25;;;;;;;10.02;3.80;;;;;;;;;;5002604;28;20025;-74
2021/04/04 07:43:59;;;;;;;11.43;4.57;;;;;;;;;;5000506;28;20552;-74
2021/04/04 07:46:32;;;;;;;13.35;4.22;;;;;;;;;;4995238;28;20026;-74
2021/04/04 07:49:03;;;;;;;12.38;4.28;;;;;;;;;;5001166;28;20034;-74
2021/04/04 07:51:30;;;;;;;15.43;4.57;;;;;;;;;;5006767;28;20030;-74
2021/04/04 07:53:56;;;;;;;19.10;4.40;;;;;;;;;;5001409;28;20048;-73
2021/04/04 07:56:41;;;;;;;12.13;4.45;;;;;;;;;;5010493;28;20058;-73
2021/04/04 07:59:10;;;;;;;14.80;4.40;;;;;;;;;;5006019;28;20043;-74
2021/04/04 08:01:50;;;;;;;9.85;5.22;;;;;;;;;;5001565;28;20482;-74
2021/04/04 08:04:25;;;;;;;12.90;4.72;;;;;;;;;;4999082;28;20058;-73
2021/04/04 08:06:55;;;;;;;13.40;3.60;;;;;;;;;;5001862;28;20025;-73
2021/04/04 08:09:26;;;;;;;20.33;4.35;;;;;;;;;;5007170;28;20025;-74
2021/04/04 08:12:02;;;;;;;12.13;4.68;;;;;;;;;;5008134;28;20036;-73
2021/04/04 08:14:38;;;;;;;11.50;4.68;;;;;;;;;;5006322;28;20072;-74
2021/04/04 08:17:04;;;;;;;16.20;4.72;;;;;;;;;;5002405;28;20464;-74
2021/04/04 08:19:30;;;;;;;21.88;4.68;;;;;;;;;;4999618;28;20029;-73
2021/04/04 08:22:03;;;;;;;12.75;4.63;;;;;;;;;;4997646;28;20424;-74
2021/04/04 08:24:37;;;;;;;16.15;5.43;;;;;;;;;;5001083;28;20047;-74
2021/04/04 08:27:07;;;;;;;13.77;5.25;;;;;;;;;;5004119;28;20084;-73
2021/04/04 08:29:40;;;;;;;16.13;5.43;;;;;;;;;;5009314;28;20113;-74
2021/04/04 08:32:09;;;;;;;16.00;6.60;;;;;;;;;;5007299;28;20092;-73
2021/04/04 08:34:41;;;;;;;13.27;4.75;;;;;;;;;;5004411;28;20060;-73
2021/04/04 08:37:14;;;;;;;17.10;5.00;;;;;;;;;;5003322;28;20368;-70
2021/04/04 08:39:42;;;;;;;11.27;4.55;;;;;;;;;;5002815;28;20437;-72
2021/04/04 08:42:10;;;;;;;15.00;5.18;;;;;;;;;;5004409;28;20030;-73
2021/04/04 08:44:44;;;;;;;14.05;6.45;;;;;;;;;;5005727;28;20033;-72
2021/04/04 08:47:27;;;;;;;13.38;4.28;;;;;;;;;;5008846;28;20026;-73
2021/04/04 08:49:53;;;;;;;15.77;6.05;;;;;;;;;;5007306;28;20388;-73
2021/04/04 08:52:26;;;;;;;14.95;4.10;;;;;;;;;;4996973;28;20033;-73
2021/04/04 08:54:54;;;;;;;9.23;3.90;;;;;;;;;;5002800;28;20510;-73
2021/04/04 08:57:23;;;;;;;12.73;5.32;;;;;;;;;;4996217;28;20027;-73
2021/04/04 08:59:52;;;;;;;10.53;4.13;;;;;;;;;;4996018;28;20038;-72
2021/04/04 09:02:18;;;;;;;10.32;4.32;;;;;;;;;;4994194;28;20037;-72
2021/04/04 09:04:44;;;;;;;9.23;3.67;;;;;;;;;;4999978;28;20049;-73
2021/04/04 09:07:11;;;;;;;14.27;5.28;;;;;;;;;;4997927;28;20034;-73
2021/04/04 09:09:42;;;;;;;14.93;4.75;;;;;;;;;;5004905;28;20030;-73
2021/04/04 09:12:08;;;;;;;20.95;6.63;;;;;;;;;;5001090;28;20034;-73
2021/04/04 09:14:38;;;;;;;10.32;5.22;;;;;;;;;;5003191;28;20108;-73
2021/04/04 09:17:11;;;;;;;15.20;5.13;;;;;;;;;;5002206;28;20431;-73
2021/04/04 09:19:38;;;;;;;12.50;4.68;;;;;;;;;;5001828;28;20030;-73
2021/04/04 09:22:06;;;;;;;18.00;5.43;;;;;;;;;;5004624;28;20034;-73
2021/04/04 09:24:39;;;;;;;8.65;3.90;;;;;;;;;;5003454;28;20136;-72
2021/04/04 09:27:10;;;;;;;13.43;4.47;;;;;;;;;;5011806;28;20055;-72
2021/04/04 09:29:36;;;;;;;12.98;4.35;;;;;;;;;;4999832;28;20101;-73
2021/04/04 09:32:10;;;;;;;10.95;4.55;;;;;;;;;;4999494;28;20026;-73
2021/04/04 09:34:37;;;;;;;12.15;5.20;;;;;;;;;;4994398;28;20165;-73
2021/04/04 09:37:03;;;;;;;15.35;5.13;;;;;;;;;;5002489;28;20495;-73
2021/04/04 09:39:30;;;;;;;11.32;4.40;;;;;;;;;;4996732;28;20030;-73
2021/04/04 09:41:57;;;;;;;10.27;4.20;;;;;;;;;;5005351;28;20087;-73
2021/04/04 09:44:33;;;;;;;9.57;3.63;;;;;;;;;;5001490;28;20064;-73
2021/04/04 09:47:00;;;;;;;17.67;5.38;;;;;;;;;;5003712;28;20562;-73
2021/04/04 09:49:35;;;;;;;13.80;4.35;;;;;;;;;;5009619;28;20054;-73
2021/04/04 09:52:13;;;;;;;16.40;5.07;;;;;;;;;;5022993;28;20022;-73
2021/04/04 09:55:02;;;;;;;12.23;3.75;;;;;;;;;;5018437;28;20034;-73
2021/04/04 09:57:28;;;;;;;15.75;3.92;;;;;;;;;;5025513;28;20036;-73
2021/04/04 09:59:55;;;;;;;15.80;4.63;;;;;;;;;;5026220;28;20026;-73
2021/04/04 10:02:35;;;;;;;16.25;4.32;;;;;;;;;;5021824;28;20034;-73
2021/04/04 10:05:01;;;;;;;8.30;4.30;;;;;;;;;;5018024;28;20026;-77
2021/04/04 10:07:34;;;;;;;13.50;5.32;;;;;;;;;;5025643;28;20034;-76
2021/04/04 10:10:00;;;;;;;11.10;3.92;;;;;;;;;;5019698;28;20566;-72
2021/04/04 10:12:26;;;;;;;11.88;4.78;;;;;;;;;;5010283;28;20387;-72
2021/04/04 10:15:03;;;;;;;13.52;4.00;;;;;;;;;;5017529;28;20244;-79
2021/04/04 10:17:29;;;;;;;12.90;4.15;;;;;;;;;;5013566;28;20034;-71
2021/04/04 10:19:56;;;;;;;8.52;4.90;;;;;;;;;;5009866;28;20120;-73
2021/04/04 10:22:22;;;;;;;12.30;4.75;;;;;;;;;;5005004;28;20018;-72
2021/04/04 10:24:49;;;;;;;13.60;4.45;;;;;;;;;;5011090;28;20116;-73
2021/04/04 10:27:25;;;;;;;11.82;4.47;;;;;;;;;;5031280;28;20046;-73
2021/04/04 10:30:18;;;;;;;9.40;3.63;;;;;;;;;;5024096;28;20076;-76
2021/04/04 10:32:48;;;;;;;15.38;4.10;;;;;;;;;;5012561;28;20030;-72
2021/04/04 10:35:27;;;;;;;7.95;3.58;;;;;;;;;;5009732;28;20025;-72
2021/04/04 10:38:01;;;;;;;12.85;4.50;;;;;;;;;;5010195;28;20563;-73
2021/04/04 10:40:39;;;;;;;13.35;4.15;;;;;;;;;;5007619;28;20024;-72
2021/04/04 10:43:05;;;;;;;8.50;4.15;;;;;;;;;;5009406;28;20022;-72
2021/04/04 10:45:31;;;;;;;9.85;3.85;;;;;;;;;;5002314;28;20025;-72
2021/04/04 10:48:05;;;;;;;10.98;4.28;;;;;;;;;;4999189;28;20023;-73
2021/04/04 10:50:32;;;;;;;12.40;4.40;;;;;;;;;;5008321;28;20535;-70
2021/04/04 10:52:58;;;;;;;14.10;4.50;;;;;;;;;;5009304;28;20038;-72
2021/04/04 10:55:24;;;;;;;7.93;4.00;;;;;;;;;;5003289;28;20034;-72
2021/04/04 10:57:50;;;;;;;9.18;4.10;;;;;;;;;;5006491;28;20026;-72
2021/04/04 11:00:17;;;;;;;12.02;4.47;;;;;;;;;;4995132;28;20025;-72
2021/04/04 11:02:43;;;;;;;9.18;3.67;;;;;;;;;;4998192;28;20026;-72
2021/04/04 11:05:09;;;;;;;13.60;4.13;;;;;;;;;;5001531;28;20027;-72
2021/04/04 11:07:36;;;;;;;8.25;4.43;;;;;;;;;;5002216;28;20811;-72
2021/04/04 11:10:03;;;;;;;14.70;4.03;;;;;;;;;;5001638;28;20045;-72
2021/04/04 11:12:32;;;;;;;9.00;4.53;;;;;;;;;;5002995;28;20030;-72
2021/04/04 11:15:00;;;;;;;9.10;3.72;;;;;;;;;;5002858;28;20026;-72
2021/04/04 11:17:26;;;;;;;9.85;4.38;;;;;;;;;;4998593;28;20033;-72
2021/04/04 11:19:52;;;;;;;9.63;5.13;;;;;;;;;;4998851;28;20487;-72
2021/04/04 11:22:20;;;;;;;12.18;4.95;;;;;;;;;;5001831;28;20412;-72
2021/04/04 11:24:59;;;;;;;15.20;4.78;;;;;;;;;;5007687;28;20025;-72
2021/04/04 11:27:44;;;;;;;14.98;4.55;;;;;;;;;;5002643;28;20026;-72
2021/04/04 11:30:28;;;;;;;9.60;4.32;;;;;;;;;;5007322;28;20484;-72
2021/04/04 11:33:13;;;;;;;10.13;4.32;;;;;;;;;;4996709;28;20084;-73
2021/04/04 11:35:57;;;;;;;12.10;4.40;;;;;;;;;;5000452;28;20390;-72
2021/04/04 11:38:23;;;;;;;14.48;4.88;;;;;;;;;;5019126;28;20030;-72
2021/04/04 11:41:08;;;;;;;11.82;4.53;;;;;;;;;;4998221;28;20029;-72
2021/04/04 11:43:34;;;;;;;8.85;3.75;;;;;;;;;;5001299;28;20030;-72
2021/04/04 11:46:00;;;;;;;13.68;4.93;;;;;;;;;;4995903;28;20033;-72
2021/04/04 11:48:39;;;;;;;11.27;4.68;;;;;;;;;;5001333;28;20129;-72
2021/04/04 11:51:10;;;;;;;12.68;4.43;;;;;;;;;;4998049;28;20038;-72
2021/04/04 11:53:41;;;;;;;12.07;4.20;;;;;;;;;;4991791;28;20446;-72
2021/04/04 11:56:07;;;;;;;12.30;5.50;;;;;;;;;;4996365;28;20038;-72
2021/04/04 11:58:34;;;;;;;14.00;4.63;;;;;;;;;;4998203;28;20053;-72
2021/04/04 12:01:00;;;;;;;16.98;4.80;;;;;;;;;;4997173;28;20034;-72
2021/04/04 12:03:27;;;;;;;10.63;4.07;;;;;;;;;;5001555;28;20064;-72
2021/04/04 12:05:53;;;;;;;13.07;4.97;;;;;;;;;;5003798;28;20109;-73
2021/04/04 12:08:32;;;;;;;11.95;4.05;;;;;;;;;;4999992;28;20113;-73
2021/04/04 12:10:59;;;;;;;6.40;4.30;;;;;;;;;;4997447;28;20025;-72
2021/04/04 12:13:25;;;;;;;9.02;3.40;;;;;;;;;;5002871;28;20113;-72
2021/04/04 12:15:58;;;;;;;9.43;3.97;;;;;;;;;;5001633;28;20124;-72
2021/04/04 12:18:24;;;;;;;10.68;3.90;;;;;;;;;;5003347;28;20057;-72
2021/04/04 12:20:51;;;;;;;13.73;3.63;;;;;;;;;;5007362;28;20053;-72
2021/04/04 12:23:18;;;;;;;11.27;4.15;;;;;;;;;;4999873;28;20057;-72
2021/04/04 12:25:44;;;;;;;15.77;5.00;;;;;;;;;;5001381;28;20387;-73
2021/04/04 12:28:10;;;;;;;10.48;4.05;;;;;;;;;;5002611;28;20472;-73
2021/04/04 12:30:37;;;;;;;11.15;3.95;;;;;;;;;;4992898;28;20026;-73
2021/04/04 12:33:14;;;;;;;12.07;4.03;;;;;;;;;;4993037;28;20480;-72
2021/04/04 12:35:47;;;;;;;12.25;4.70;;;;;;;;;;4997083;28;20561;-72
2021/04/04 12:38:22;;;;;;;9.27;4.45;;;;;;;;;;5002964;28;20121;-72
2021/04/04 12:40:48;;;;;;;5.47;2.70;;;;;;;;;;5006738;28;20033;-72
2021/04/04 12:43:14;;;;;;;11.38;4.50;;;;;;;;;;5008016;28;20014;-73
2021/04/04 12:45:40;;;;;;;14.00;4.53;;;;;;;;;;5002322;28;20032;-73
2021/04/04 12:48:12;;;;;;;10.88;4.50;;;;;;;;;;5006082;28;20490;-72
2021/04/04 12:50:38;;;;;;;11.55;3.92;;;;;;;;;;5008472;28;20022;-73
2021/04/04 12:53:04;;;;;;;10.20;4.10;;;;;;;;;;5006585;28;20384;-73
2021/04/04 12:55:31;;;;;;;9.88;4.18;;;;;;;;;;4997813;28;20069;-72
2021/04/04 12:58:05;;;;;;;11.52;4.60;;;;;;;;;;4998648;28;20128;-72
2021/04/04 13:00:41;;;;;;;12.20;3.88;;;;;;;;;;5000563;28;20030;-72
2021/04/04 13:03:08;;;;;;;8.25;4.20;;;;;;;;;;5004262;28;20525;-72
2021/04/04 13:05:34;;;;;;;17.10;5.28;;;;;;;;;;5001767;28;20753;-72
2021/04/04 13:08:00;;;;;;;10.63;4.03;;;;;;;;;;5001807;28;20135;-72
2021/04/04 13:10:26;;;;;;;12.73;4.15;;;;;;;;;;5003641;28;20113;-72
2021/04/04 13:12:52;;;;;;;13.73;4.50;;;;;;;;;;5007832;28;20030;-72
2021/04/04 13:15:30;;;;;;;8.70;4.57;;;;;;;;;;5006282;28;20065;-72
2021/04/04 13:17:57;;;;;;;12.38;4.80;;;;;;;;;;4998272;28;20026;-72
2021/04/04 13:20:23;;;;;;;11.50;4.53;;;;;;;;;;5005107;28;20030;-72
2021/04/04 13:22:50;;;;;;;12.02;4.70;;;;;;;;;;5006637;28;20156;-72
2021/04/04 13:25:16;;;;;;;14.98;4.55;;;;;;;;;;5008614;28;20022;-72
2021/04/04 13:27:42;;;;;;;12.40;4.97;;;;;;;;;;5005171;28;20046;-72
2021/04/04 13:30:18;;;;;;;10.55;4.95;;;;;;;;;;5009213;28;20044;-72
2021/04/04 13:32:49;;;;;;;12.88;5.10;;;;;;;;;;4997007;28;20029;-72
2021/04/04 13:35:44;;;;;;;9.63;4.20;;;;;;;;;;4996297;28;20034;-74
2021/04/04 13:38:22;;;;;;;8.50;4.53;;;;;;;;;;5003399;28;20097;-78
2021/04/04 13:40:49;;;;;;;12.90;5.35;;;;;;;;;;5022348;28;20073;-72
2021/04/04 13:43:22;;;;;;;9.65;4.72;;;;;;;;;;5006617;28;20021;-73
2021/04/04 13:45:48;;;;;;;10.05;4.70;;;;;;;;;;5005180;28;20030;-73
2021/04/04 13:48:28;;;;;;;11.00;5.10;;;;;;;;;;5000940;28;20096;-72
2021/04/04 13:50:54;;;;;;;;;;;;;;;;;;5002120;28;20415;-73
2021/04/04 13:53:22;;;;;;;15.75;4.75;;;;;;;;;;5002477;28;19913;-73
2021/04/04 13:55:48;;;;;;;13.77;5.43;;;;;;;;;;5005431;28;20018;-73
2021/04/04 13:58:27;;;;;;;9.68;4.38;;;;;;;;;;4999108;28;20391;-72
2021/04/04 14:00:53;;;;;;;10.07;4.88;;;;;;;;;;5003538;28;20026;-73
2021/04/04 14:03:19;;;;;;;16.08;5.13;;;;;;;;;;4998230;28;20018;-72
2021/04/04 14:05:45;;;;;;;10.18;4.65;;;;;;;;;;5004143;28;20033;-73
2021/04/04 14:08:11;;;;;;;10.43;5.10;;;;;;;;;;5009278;28;20799;-73
2021/04/04 14:10:37;;;;;;;13.48;4.85;;;;;;;;;;5004770;28;20025;-73
2021/04/04 14:13:05;;;;;;;12.10;5.07;;;;;;;;;;5000457;28;20036;-71
2021/04/04 14:15:31;;;;;;;15.77;5.22;;;;;;;;;;4998188;28;20022;-72
2021/04/04 14:17:58;;;;;;;11.77;5.32;;;;;;;;;;5005671;28;20030;-72
2021/04/04 14:20:24;;;;;;;11.13;4.57;;;;;;;;;;4997752;28;20022;-71
2021/04/04 14:22:53;;;;;;;13.05;5.45;;;;;;;;;;5008415;28;20022;-73
2021/04/04 14:25:19;;;;;;;11.88;5.10;;;;;;;;;;5015612;28;20542;-72
2021/04/04 14:27:45;;;;;;;10.25;4.60;;;;;;;;;;5000043;28;20031;-73
2021/04/04 14:30:11;;;;;;;8.68;4.47;;;;;;;;;;5001176;28;20120;-73
2021/04/04 14:32:37;;;;;;;9.68;4.47;;;;;;;;;;5005851;28;20481;-73
2021/04/04 14:35:04;;;;;;;13.07;5.05;;;;;;;;;;5000554;28;20022;-73
2021/04/04 14:37:30;;;;;;;14.00;6.32;;;;;;;;;;5008561;28;20064;-73
2021/04/04 14:39:56;;;;;;;12.15;5.25;;;;;;;;;;5003307;28;20696;-74
2021/04/04 14:42:22;;;;;;;12.60;4.28;;;;;;;;;;5004138;28;20065;-73
2021/04/04 14:44:47;;;;;;;9.48;4.90;;;;;;;;;;4995577;28;20037;-73
2021/04/04 14:47:13;;;;;;;12.23;4.25;;;;;;;;;;4993099;28;20027;-73
2021/04/04 14:49:39;;;;;;;9.77;4.93;;;;;;;;;;4999017;28;20030;-73